sensor_id;sensor_type;location;lat;lon;timestamp;temperature;humidity
57030;DHT22;42920;45.306;20.448;2024-01-07T00:02:24;282.00;2278.40
57030;DHT22;42920;45.306;20.448;2024-01-07T00:04:49;282.00;2278.40
57030;DHT22;42920;45.306;20.448;2024-01-07T00:07:15;282.00;2278.40
57030;DHT22;42920;45.306;20.448;2024-01-07T00:09:41;281.80;2278.40
57030;DHT22;42920;45.306;20.448;2024-01-07T00:12:07;281.70;2278.40
57030;DHT22;42920;45.306;20.448;2024-01-07T00:14:32;281.70;2278.40
57030;DHT22;42920;45.306;20.448;2024-01-07T00:16:58;281.70;2278.40
57030;DHT22;42920;45.306;20.448;2024-01-07T00:19:23;281.70;2278.40
57030;DHT22;42920;45.306;20.448;2024-01-07T00:21:49;281.60;2278.40
57030;DHT22;42920;45.306;20.448;2024-01-07T00:24:15;281.60;2278.40
57030;DHT22;42920;45.306;20.448;2024-01-07T00:26:41;256.90;2252.80
57030;DHT22;42920;45.306;20.448;2024-01-07T00:29:06;281.60;2278.40
57030;DHT22;42920;45.306;20.448;2024-01-07T00:31:32;281.60;2278.40
57030;DHT22;42920;45.306;20.448;2024-01-07T00:33:57;281.60;2278.40
57030;DHT22;42920;45.306;20.448;2024-01-07T00:36:23;281.60;2278.40
57030;DHT22;42920;45.306;20.448;2024-01-07T00:38:49;281.60;2278.40
57030;DHT22;42920;45.306;20.448;2024-01-07T00:41:14;256.80;2252.80
57030;DHT22;42920;45.306;20.448;2024-01-07T00:43:40;281.60;2278.40
57030;DHT22;42920;45.306;20.448;2024-01-07T00:46:06;281.60;2278.40
57030;DHT22;42920;45.306;20.448;2024-01-07T00:48:31;281.60;2278.40
57030;DHT22;42920;45.306;20.448;2024-01-07T00:50:57;281.70;2278.40
57030;DHT22;42920;45.306;20.448;2024-01-07T00:53:23;281.60;2278.40
57030;DHT22;42920;45.306;20.448;2024-01-07T00:55:48;281.60;2278.40
57030;DHT22;42920;45.306;20.448;2024-01-07T00:58:14;281.60;2278.40
57030;DHT22;42920;45.306;20.448;2024-01-07T01:00:39;281.60;2278.40
57030;DHT22;42920;45.306;20.448;2024-01-07T01:03:05;281.60;2278.40
57030;DHT22;42920;45.306;20.448;2024-01-07T01:05:31;281.60;2278.40
57030;DHT22;42920;45.306;20.448;2024-01-07T01:07:56;256.90;2252.80
57030;DHT22;42920;45.306;20.448;2024-01-07T01:10:22;256.90;2252.80
57030;DHT22;42920;45.306;20.448;2024-01-07T01:12:47;256.90;2252.80
57030;DHT22;42920;45.306;20.448;2024-01-07T01:15:13;256.90;2252.80
57030;DHT22;42920;45.306;20.448;2024-01-07T01:17:42;256.90;2252.80
57030;DHT22;42920;45.306;20.448;2024-01-07T01:20:07;256.90;2252.80
57030;DHT22;42920;45.306;20.448;2024-01-07T01:22:33;256.90;2252.80
57030;DHT22;42920;45.306;20.448;2024-01-07T01:24:59;256.90;2252.80
57030;DHT22;42920;45.306;20.448;2024-01-07T01:27:25;256.90;2252.80
57030;DHT22;42920;45.306;20.448;2024-01-07T01:29:50;256.90;2252.80
57030;DHT22;42920;45.306;20.448;2024-01-07T01:32:16;256.90;2252.80
57030;DHT22;42920;45.306;20.448;2024-01-07T01:34:42;281.60;2278.40
57030;DHT22;42920;45.306;20.448;2024-01-07T01:37:08;281.60;2278.40
57030;DHT22;42920;45.306;20.448;2024-01-07T01:39:33;281.60;2278.40
57030;DHT22;42920;45.306;20.448;2024-01-07T01:41:59;281.60;2278.40
57030;DHT22;42920;45.306;20.448;2024-01-07T01:44:24;281.60;2278.40
57030;DHT22;42920;45.306;20.448;2024-01-07T01:46:52;281.60;2278.40
57030;DHT22;42920;45.306;20.448;2024-01-07T01:49:18;281.60;2278.40
57030;DHT22;42920;45.306;20.448;2024-01-07T01:51:43;281.60;2278.40
57030;DHT22;42920;45.306;20.448;2024-01-07T01:54:09;281.60;2278.40
57030;DHT22;42920;45.306;20.448;2024-01-07T01:56:35;281.60;2278.40
57030;DHT22;42920;45.306;20.448;2024-01-07T01:59:01;281.60;2278.40
57030;DHT22;42920;45.306;20.448;2024-01-07T02:01:26;281.60;2278.40
57030;DHT22;42920;45.306;20.448;2024-01-07T02:03:52;281.70;2278.40
57030;DHT22;42920;45.306;20.448;2024-01-07T02:06:19;281.80;2278.40
57030;DHT22;42920;45.306;20.448;2024-01-07T02:08:45;281.70;2278.40
57030;DHT22;42920;45.306;20.448;2024-01-07T02:11:18;281.70;2278.40
57030;DHT22;42920;45.306;20.448;2024-01-07T02:13:43;281.70;2278.40
57030;DHT22;42920;45.306;20.448;2024-01-07T02:16:09;281.80;2278.40
57030;DHT22;42920;45.306;20.448;2024-01-07T02:18:35;281.80;2278.40
57030;DHT22;42920;45.306;20.448;2024-01-07T02:21:00;281.70;2278.40
57030;DHT22;42920;45.306;20.448;2024-01-07T02:23:26;281.70;2278.40
57030;DHT22;42920;45.306;20.448;2024-01-07T02:25:51;281.70;2278.40
57030;DHT22;42920;45.306;20.448;2024-01-07T02:28:17;281.70;2278.40
57030;DHT22;42920;45.306;20.448;2024-01-07T02:30:42;281.70;2278.40
57030;DHT22;42920;45.306;20.448;2024-01-07T02:33:08;281.60;2278.40
57030;DHT22;42920;45.306;20.448;2024-01-07T02:35:34;281.70;2278.40
57030;DHT22;42920;45.306;20.448;2024-01-07T02:37:59;281.70;2278.40
57030;DHT22;42920;45.306;20.448;2024-01-07T02:40:25;281.70;2278.40
57030;DHT22;42920;45.306;20.448;2024-01-07T02:42:50;281.60;2278.40
57030;DHT22;42920;45.306;20.448;2024-01-07T02:45:16;281.60;2278.40
57030;DHT22;42920;45.306;20.448;2024-01-07T02:47:42;256.90;2252.80
57030;DHT22;42920;45.306;20.448;2024-01-07T02:50:08;256.90;2252.80
57030;DHT22;42920;45.306;20.448;2024-01-07T02:52:33;256.70;2252.80
57030;DHT22;42920;45.306;20.448;2024-01-07T02:54:59;256.60;2252.80
57030;DHT22;42920;45.306;20.448;2024-01-07T02:57:27;256.50;2252.80
57030;DHT22;42920;45.306;20.448;2024-01-07T02:59:52;256.70;2252.80
57030;DHT22;42920;45.306;20.448;2024-01-07T03:02:18;256.70;2252.80
57030;DHT22;42920;45.306;20.448;2024-01-07T03:04:44;256.80;2252.80
57030;DHT22;42920;45.306;20.448;2024-01-07T03:07:09;256.80;2252.80
57030;DHT22;42920;45.306;20.448;2024-01-07T03:09:35;256.80;2252.80
57030;DHT22;42920;45.306;20.448;2024-01-07T03:12:00;256.80;2252.80
57030;DHT22;42920;45.306;20.448;2024-01-07T03:14:26;256.90;2252.80
57030;DHT22;42920;45.306;20.448;2024-01-07T03:16:52;256.80;2252.80
57030;DHT22;42920;45.306;20.448;2024-01-07T03:19:18;256.60;2252.80
57030;DHT22;42920;45.306;20.448;2024-01-07T03:21:43;256.50;2252.80
57030;DHT22;42920;45.306;20.448;2024-01-07T03:24:09;256.50;2252.80
57030;DHT22;42920;45.306;20.448;2024-01-07T03:26:35;256.40;2252.80
57030;DHT22;42920;45.306;20.448;2024-01-07T03:29:01;256.50;2252.80
57030;DHT22;42920;45.306;20.448;2024-01-07T03:31:27;256.30;2252.80
57030;DHT22;42920;45.306;20.448;2024-01-07T03:33:53;256.40;2252.80
57030;DHT22;42920;45.306;20.448;2024-01-07T03:36:19;256.50;2252.80
57030;DHT22;42920;45.306;20.448;2024-01-07T03:38:44;256.50;2252.80
57030;DHT22;42920;45.306;20.448;2024-01-07T03:41:15;256.50;2252.80
57030;DHT22;42920;45.306;20.448;2024-01-07T03:43:40;256.50;2252.80
57030;DHT22;42920;45.306;20.448;2024-01-07T03:46:06;256.40;2252.80
57030;DHT22;42920;45.306;20.448;2024-01-07T03:48:32;256.40;2252.80
57030;DHT22;42920;45.306;20.448;2024-01-07T03:50:57;256.40;2252.80
57030;DHT22;42920;45.306;20.448;2024-01-07T03:53:23;256.30;2252.80
57030;DHT22;42920;45.306;20.448;2024-01-07T03:55:49;256.30;2252.80
57030;DHT22;42920;45.306;20.448;2024-01-07T03:58:14;256.40;2252.80
57030;DHT22;42920;45.306;20.448;2024-01-07T04:00:40;256.40;2252.80
57030;DHT22;42920;45.306;20.448;2024-01-07T04:03:06;256.30;2252.80
57030;DHT22;42920;45.306;20.448;2024-01-07T04:05:31;256.30;2252.80
57030;DHT22;42920;45.306;20.448;2024-01-07T04:08:00;256.20;2252.80
57030;DHT22;42920;45.306;20.448;2024-01-07T04:10:25;256.30;2252.80
57030;DHT22;42920;45.306;20.448;2024-01-07T04:12:51;256.30;2252.80
57030;DHT22;42920;45.306;20.448;2024-01-07T04:15:17;256.40;2252.80
57030;DHT22;42920;45.306;20.448;2024-01-07T04:17:42;256.30;2252.80
57030;DHT22;42920;45.306;20.448;2024-01-07T04:20:08;256.30;2252.80
57030;DHT22;42920;45.306;20.448;2024-01-07T04:22:34;256.30;2252.80
57030;DHT22;42920;45.306;20.448;2024-01-07T04:24:59;256.30;2252.80
57030;DHT22;42920;45.306;20.448;2024-01-07T04:27:25;256.40;2252.80
57030;DHT22;42920;45.306;20.448;2024-01-07T04:29:50;256.30;2252.80
57030;DHT22;42920;45.306;20.448;2024-01-07T04:32:16;256.30;2252.80
57030;DHT22;42920;45.306;20.448;2024-01-07T04:34:42;256.20;2252.80
57030;DHT22;42920;45.306;20.448;2024-01-07T04:37:07;256.30;2252.80
57030;DHT22;42920;45.306;20.448;2024-01-07T04:39:33;256.40;2252.80
57030;DHT22;42920;45.306;20.448;2024-01-07T04:41:58;256.30;2252.80
57030;DHT22;42920;45.306;20.448;2024-01-07T04:44:24;256.40;2252.80
57030;DHT22;42920;45.306;20.448;2024-01-07T04:46:50;256.50;2252.80
57030;DHT22;42920;45.306;20.448;2024-01-07T04:49:15;256.40;2252.80
57030;DHT22;42920;45.306;20.448;2024-01-07T04:51:41;256.30;2252.80
57030;DHT22;42920;45.306;20.448;2024-01-07T04:54:06;256.20;2252.80
57030;DHT22;42920;45.306;20.448;2024-01-07T04:56:32;256.20;2252.80
57030;DHT22;42920;45.306;20.448;2024-01-07T04:58:58;256.20;2252.80
57030;DHT22;42920;45.306;20.448;2024-01-07T05:01:23;256.20;2252.80
57030;DHT22;42920;45.306;20.448;2024-01-07T05:03:49;256.20;2252.80
57030;DHT22;42920;45.306;20.448;2024-01-07T05:06:15;256.30;2252.80
57030;DHT22;42920;45.306;20.448;2024-01-07T05:08:40;256.30;2252.80
57030;DHT22;42920;45.306;20.448;2024-01-07T05:11:07;256.30;2252.80
57030;DHT22;42920;45.306;20.448;2024-01-07T05:13:32;256.30;2252.80
57030;DHT22;42920;45.306;20.448;2024-01-07T05:15:58;256.30;2252.80
57030;DHT22;42920;45.306;20.448;2024-01-07T05:18:24;256.30;2252.80
57030;DHT22;42920;45.306;20.448;2024-01-07T05:20:49;256.30;2252.80
57030;DHT22;42920;45.306;20.448;2024-01-07T05:23:15;256.30;2252.80
57030;DHT22;42920;45.306;20.448;2024-01-07T05:25:44;256.30;2252.80
57030;DHT22;42920;45.306;20.448;2024-01-07T05:28:10;256.30;2252.80
57030;DHT22;42920;45.306;20.448;2024-01-07T05:30:36;256.30;2252.80
57030;DHT22;42920;45.306;20.448;2024-01-07T05:33:02;256.40;2252.80
57030;DHT22;42920;45.306;20.448;2024-01-07T05:35:28;256.40;2252.80
57030;DHT22;42920;45.306;20.448;2024-01-07T05:37:53;256.40;2252.80
57030;DHT22;42920;45.306;20.448;2024-01-07T05:40:19;256.40;2252.80
57030;DHT22;42920;45.306;20.448;2024-01-07T05:42:44;256.40;2252.80
57030;DHT22;42920;45.306;20.448;2024-01-07T05:45:10;256.30;2252.80
57030;DHT22;42920;45.306;20.448;2024-01-07T05:47:36;256.20;2252.80
57030;DHT22;42920;45.306;20.448;2024-01-07T05:50:01;256.20;2252.80
57030;DHT22;42920;45.306;20.448;2024-01-07T05:52:27;256.20;2252.80
57030;DHT22;42920;45.306;20.448;2024-01-07T05:54:53;256.10;2252.80
57030;DHT22;42920;45.306;20.448;2024-01-07T05:57:18;256.10;2252.80
57030;DHT22;42920;45.306;20.448;2024-01-07T05:59:44;256.10;2252.80
57030;DHT22;42920;45.306;20.448;2024-01-07T06:02:10;256.10;2252.80
57030;DHT22;42920;45.306;20.448;2024-01-07T06:04:39;256.10;2252.80
57030;DHT22;42920;45.306;20.448;2024-01-07T06:07:05;256.10;2252.80
57030;DHT22;42920;45.306;20.448;2024-01-07T06:09:31;256.00;2252.80
57030;DHT22;42920;45.306;20.448;2024-01-07T06:11:58;256.20;2252.80
57030;DHT22;42920;45.306;20.448;2024-01-07T06:14:24;256.20;2252.80
57030;DHT22;42920;45.306;20.448;2024-01-07T06:16:50;256.20;2252.80
57030;DHT22;42920;45.306;20.448;2024-01-07T06:19:16;256.20;2252.80
57030;DHT22;42920;45.306;20.448;2024-01-07T06:21:43;256.20;2252.80
57030;DHT22;42920;45.306;20.448;2024-01-07T06:24:09;256.30;2252.80
57030;DHT22;42920;45.306;20.448;2024-01-07T06:26:34;256.30;2252.80
57030;DHT22;42920;45.306;20.448;2024-01-07T06:29:00;256.30;2252.80
57030;DHT22;42920;45.306;20.448;2024-01-07T06:31:26;256.40;2252.80
57030;DHT22;42920;45.306;20.448;2024-01-07T06:33:52;256.50;2252.80
57030;DHT22;42920;45.306;20.448;2024-01-07T06:36:18;256.40;2252.80
57030;DHT22;42920;45.306;20.448;2024-01-07T06:38:43;256.30;2252.80
57030;DHT22;42920;45.306;20.448;2024-01-07T06:41:09;256.40;2252.80
57030;DHT22;42920;45.306;20.448;2024-01-07T06:43:35;256.40;2252.80
57030;DHT22;42920;45.306;20.448;2024-01-07T06:46:01;256.30;2252.80
57030;DHT22;42920;45.306;20.448;2024-01-07T06:48:26;256.30;2252.80
57030;DHT22;42920;45.306;20.448;2024-01-07T06:50:52;256.30;2252.80
57030;DHT22;42920;45.306;20.448;2024-01-07T06:53:17;256.30;2252.80
57030;DHT22;42920;45.306;20.448;2024-01-07T06:55:43;256.20;2252.80
57030;DHT22;42920;45.306;20.448;2024-01-07T06:58:09;256.30;2252.80
57030;DHT22;42920;45.306;20.448;2024-01-07T07:00:34;256.30;2252.80
57030;DHT22;42920;45.306;20.448;2024-01-07T07:03:00;256.30;2252.80
57030;DHT22;42920;45.306;20.448;2024-01-07T07:05:25;256.40;2252.80
57030;DHT22;42920;45.306;20.448;2024-01-07T07:07:51;256.40;2252.80
57030;DHT22;42920;45.306;20.448;2024-01-07T07:10:17;256.50;2252.80
57030;DHT22;42920;45.306;20.448;2024-01-07T07:12:42;256.50;2252.80
57030;DHT22;42920;45.306;20.448;2024-01-07T07:15:08;256.50;2252.80
57030;DHT22;42920;45.306;20.448;2024-01-07T07:17:36;256.50;2252.80
57030;DHT22;42920;45.306;20.448;2024-01-07T07:20:02;256.50;2252.80
57030;DHT22;42920;45.306;20.448;2024-01-07T07:22:27;256.50;2252.80
57030;DHT22;42920;45.306;20.448;2024-01-07T07:24:53;256.60;2252.80
57030;DHT22;42920;45.306;20.448;2024-01-07T07:27:19;256.60;2252.80
57030;DHT22;42920;45.306;20.448;2024-01-07T07:29:45;256.70;2252.80
57030;DHT22;42920;45.306;20.448;2024-01-07T07:32:10;256.70;2252.80
57030;DHT22;42920;45.306;20.448;2024-01-07T07:34:36;256.70;2252.80
57030;DHT22;42920;45.306;20.448;2024-01-07T07:37:02;256.80;2252.80
57030;DHT22;42920;45.306;20.448;2024-01-07T07:39:28;256.90;2252.80
57030;DHT22;42920;45.306;20.448;2024-01-07T07:41:54;281.60;2278.40
57030;DHT22;42920;45.306;20.448;2024-01-07T07:44:19;281.60;2278.40
57030;DHT22;42920;45.306;20.448;2024-01-07T07:46:45;281.80;2278.40
57030;DHT22;42920;45.306;20.448;2024-01-07T07:49:10;281.80;2278.40
57030;DHT22;42920;45.306;20.448;2024-01-07T07:51:36;281.80;2278.40
57030;DHT22;42920;45.306;20.448;2024-01-07T07:54:02;281.80;2278.40
57030;DHT22;42920;45.306;20.448;2024-01-07T07:56:28;281.80;2278.40
57030;DHT22;42920;45.306;20.448;2024-01-07T07:58:54;281.70;2278.40
57030;DHT22;42920;45.306;20.448;2024-01-07T08:01:20;281.80;2278.40
57030;DHT22;42920;45.306;20.448;2024-01-07T08:03:45;281.70;2278.40
57030;DHT22;42920;45.306;20.448;2024-01-07T08:06:11;281.70;2278.40
57030;DHT22;42920;45.306;20.448;2024-01-07T08:08:36;281.60;2278.40
57030;DHT22;42920;45.306;20.448;2024-01-07T08:11:02;256.80;2252.80
57030;DHT22;42920;45.306;20.448;2024-01-07T08:13:30;256.90;2252.80
57030;DHT22;42920;45.306;20.448;2024-01-07T08:15:56;256.70;2252.80
57030;DHT22;42920;45.306;20.448;2024-01-07T08:18:22;256.70;2252.80
57030;DHT22;42920;45.306;20.448;2024-01-07T08:20:47;256.60;2252.80
57030;DHT22;42920;45.306;20.448;2024-01-07T08:23:13;256.60;2252.80
57030;DHT22;42920;45.306;20.448;2024-01-07T08:25:39;256.60;2252.80
57030;DHT22;42920;45.306;20.448;2024-01-07T08:28:04;256.60;2252.80
57030;DHT22;42920;45.306;20.448;2024-01-07T08:30:30;256.80;2252.80
57030;DHT22;42920;45.306;20.448;2024-01-07T08:32:56;256.90;2252.80
57030;DHT22;42920;45.306;20.448;2024-01-07T08:35:21;281.60;2278.40
57030;DHT22;42920;45.306;20.448;2024-01-07T08:37:47;256.80;2252.80
57030;DHT22;42920;45.306;20.448;2024-01-07T08:40:13;281.70;2278.40
57030;DHT22;42920;45.306;20.448;2024-01-07T08:42:39;281.60;2278.40
57030;DHT22;42920;45.306;20.448;2024-01-07T08:45:04;281.60;2278.40
57030;DHT22;42920;45.306;20.448;2024-01-07T08:47:30;281.70;2278.40
57030;DHT22;42920;45.306;20.448;2024-01-07T08:49:57;281.70;2278.40
57030;DHT22;42920;45.306;20.448;2024-01-07T08:52:22;281.90;2278.40
57030;DHT22;42920;45.306;20.448;2024-01-07T08:54:48;281.90;2278.40
57030;DHT22;42920;45.306;20.448;2024-01-07T08:57:13;281.90;2278.40
57030;DHT22;42920;45.306;20.448;2024-01-07T08:59:39;281.80;2278.40
57030;DHT22;42920;45.306;20.448;2024-01-07T09:02:04;281.80;2278.40
57030;DHT22;42920;45.306;20.448;2024-01-07T09:04:30;281.80;2278.40
57030;DHT22;42920;45.306;20.448;2024-01-07T09:06:56;281.80;2278.40
57030;DHT22;42920;45.306;20.448;2024-01-07T09:09:21;281.80;2278.40
57030;DHT22;42920;45.306;20.448;2024-01-07T09:11:47;281.70;2278.40
57030;DHT22;42920;45.306;20.448;2024-01-07T09:14:13;281.60;2278.40
57030;DHT22;42920;45.306;20.448;2024-01-07T09:16:40;256.90;2252.80
57030;DHT22;42920;45.306;20.448;2024-01-07T09:19:05;256.90;2252.80
57030;DHT22;42920;45.306;20.448;2024-01-07T09:21:31;281.60;2278.40
57030;DHT22;42920;45.306;20.448;2024-01-07T09:23:56;281.70;2278.40
57030;DHT22;42920;45.306;20.448;2024-01-07T09:26:22;281.70;2278.40
57030;DHT22;42920;45.306;20.448;2024-01-07T09:28:48;281.70;2278.40
57030;DHT22;42920;45.306;20.448;2024-01-07T09:31:13;281.70;2278.40
57030;DHT22;42920;45.306;20.448;2024-01-07T09:33:39;281.80;2278.40
57030;DHT22;42920;45.306;20.448;2024-01-07T09:36:04;281.90;2278.40
57030;DHT22;42920;45.306;20.448;2024-01-07T09:38:32;281.90;2278.40
57030;DHT22;42920;45.306;20.448;2024-01-07T09:40:57;282.00;2278.40
57030;DHT22;42920;45.306;20.448;2024-01-07T09:43:23;282.00;2278.40
57030;DHT22;42920;45.306;20.448;2024-01-07T09:45:50;282.00;2278.40
57030;DHT22;42920;45.306;20.448;2024-01-07T09:48:17;282.00;2278.40
57030;DHT22;42920;45.306;20.448;2024-01-07T09:50:42;282.10;2278.40
57030;DHT22;42920;45.306;20.448;2024-01-07T09:53:11;282.20;2278.40
57030;DHT22;42920;45.306;20.448;2024-01-07T09:55:58;282.30;2278.40
57030;DHT22;42920;45.306;20.448;2024-01-07T09:58:26;282.30;2278.40
57030;DHT22;42920;45.306;20.448;2024-01-07T10:00:51;282.40;2278.40
57030;DHT22;42920;45.306;20.448;2024-01-07T10:03:17;282.30;2278.40
57030;DHT22;42920;45.306;20.448;2024-01-07T10:05:43;282.40;2278.40
57030;DHT22;42920;45.306;20.448;2024-01-07T10:08:09;282.40;2278.40
57030;DHT22;42920;45.306;20.448;2024-01-07T10:10:35;282.30;2278.40
57030;DHT22;42920;45.306;20.448;2024-01-07T10:13:00;281.90;2278.40
57030;DHT22;42920;45.306;20.448;2024-01-07T10:15:26;282.40;2278.40
57030;DHT22;42920;45.306;20.448;2024-01-07T10:17:54;282.40;2278.40
57030;DHT22;42920;45.306;20.448;2024-01-07T10:20:20;282.50;2278.40
57030;DHT22;42920;45.306;20.448;2024-01-07T10:22:46;282.50;2278.40
57030;DHT22;42920;45.306;20.448;2024-01-07T10:25:12;282.50;2278.40
57030;DHT22;42920;45.306;20.448;2024-01-07T10:27:38;307.20;2304.00
57030;DHT22;42920;45.306;20.448;2024-01-07T10:30:04;307.30;2304.00
57030;DHT22;42920;45.306;20.448;2024-01-07T10:32:30;307.40;2304.00
57030;DHT22;42920;45.306;20.448;2024-01-07T10:34:57;307.50;2304.00
57030;DHT22;42920;45.306;20.448;2024-01-07T10:37:27;307.50;2304.00
57030;DHT22;42920;45.306;20.448;2024-01-07T10:39:52;307.50;2304.00
57030;DHT22;42920;45.306;20.448;2024-01-07T10:42:19;307.60;2304.00
57030;DHT22;42920;45.306;20.448;2024-01-07T10:44:45;307.80;2304.00
57030;DHT22;42920;45.306;20.448;2024-01-07T10:47:10;307.50;2304.00
57030;DHT22;42920;45.306;20.448;2024-01-07T10:49:38;307.60;2304.00
57030;DHT22;42920;45.306;20.448;2024-01-07T10:52:06;307.60;2304.00
57030;DHT22;42920;45.306;20.448;2024-01-07T10:54:33;307.70;2304.00
57030;DHT22;42920;45.306;20.448;2024-01-07T10:57:01;307.70;2304.00
57030;DHT22;42920;45.306;20.448;2024-01-07T10:59:29;307.80;2304.00
57030;DHT22;42920;45.306;20.448;2024-01-07T11:01:56;307.80;2304.00
57030;DHT22;42920;45.306;20.448;2024-01-07T11:06:53;307.80;2304.00
57030;DHT22;42920;45.306;20.448;2024-01-07T11:09:25;307.80;2304.00
57030;DHT22;42920;45.306;20.448;2024-01-07T11:11:52;307.80;2304.00
57030;DHT22;42920;45.306;20.448;2024-01-07T11:17:02;307.80;2304.00
57030;DHT22;42920;45.306;20.448;2024-01-07T11:19:28;307.70;2304.00
57030;DHT22;42920;45.306;20.448;2024-01-07T11:22:20;307.80;2304.00
57030;DHT22;42920;45.306;20.448;2024-01-07T11:24:39;307.70;2304.00
57030;DHT22;42920;45.306;20.448;2024-01-07T11:27:08;307.60;2304.00
57030;DHT22;42920;45.306;20.448;2024-01-07T11:29:33;307.80;2304.00
57030;DHT22;42920;45.306;20.448;2024-01-07T11:32:00;307.80;2304.00
57030;DHT22;42920;45.306;20.448;2024-01-07T11:34:41;307.80;2304.00
57030;DHT22;42920;45.306;20.448;2024-01-07T11:37:12;307.90;2304.00
57030;DHT22;42920;45.306;20.448;2024-01-07T11:39:48;308.00;2304.00
57030;DHT22;42920;45.306;20.448;2024-01-07T11:42:13;308.10;2304.00
57030;DHT22;42920;45.306;20.448;2024-01-07T11:44:49;308.10;2304.00
57030;DHT22;42920;45.306;20.448;2024-01-07T11:47:20;332.90;2329.60
57030;DHT22;42920;45.306;20.448;2024-01-07T11:49:46;332.90;2329.60
57030;DHT22;42920;45.306;20.448;2024-01-07T11:52:12;332.90;2329.60
57030;DHT22;42920;45.306;20.448;2024-01-07T11:54:38;333.00;2329.60
57030;DHT22;42920;45.306;20.448;2024-01-07T11:57:04;333.00;2329.60
57030;DHT22;42920;45.306;20.448;2024-01-07T11:59:30;332.90;2329.60
57030;DHT22;42920;45.306;20.448;2024-01-07T12:01:55;332.90;2329.60
57030;DHT22;42920;45.306;20.448;2024-01-07T12:04:21;332.90;2329.60
57030;DHT22;42920;45.306;20.448;2024-01-07T12:06:48;332.90;2329.60
57030;DHT22;42920;45.306;20.448;2024-01-07T12:09:13;332.90;2329.60
57030;DHT22;42920;45.306;20.448;2024-01-07T12:11:39;332.90;2329.60
57030;DHT22;42920;45.306;20.448;2024-01-07T12:14:06;332.90;2329.60
57030;DHT22;42920;45.306;20.448;2024-01-07T12:16:32;332.90;2329.60
57030;DHT22;42920;45.306;20.448;2024-01-07T12:18:58;332.90;2329.60
57030;DHT22;42920;45.306;20.448;2024-01-07T12:21:24;332.90;2329.60
57030;DHT22;42920;45.306;20.448;2024-01-07T12:23:52;332.80;2329.60
57030;DHT22;42920;45.306;20.448;2024-01-07T12:26:17;308.10;2304.00
57030;DHT22;42920;45.306;20.448;2024-01-07T12:28:44;308.10;2304.00
57030;DHT22;42920;45.306;20.448;2024-01-07T12:31:10;307.90;2176.00
57030;DHT22;42920;45.306;20.448;2024-01-07T12:33:39;307.80;2304.00
57030;DHT22;42920;45.306;20.448;2024-01-07T12:36:06;307.80;2304.00
57030;DHT22;42920;45.306;20.448;2024-01-07T12:38:32;307.70;2304.00
57030;DHT22;42920;45.306;20.448;2024-01-07T12:40:58;307.70;2304.00
57030;DHT22;42920;45.306;20.448;2024-01-07T12:43:24;307.70;2304.00
57030;DHT22;42920;45.306;20.448;2024-01-07T12:45:49;307.60;2304.00
57030;DHT22;42920;45.306;20.448;2024-01-07T12:48:15;307.60;2304.00
57030;DHT22;42920;45.306;20.448;2024-01-07T12:50:41;307.60;2304.00
57030;DHT22;42920;45.306;20.448;2024-01-07T12:53:06;307.60;1945.60
57030;DHT22;42920;45.306;20.448;2024-01-07T12:55:32;307.60;2124.80
57030;DHT22;42920;45.306;20.448;2024-01-07T12:57:58;307.50;2022.40
57030;DHT22;42920;45.306;20.448;2024-01-07T13:00:24;307.50;2124.80
57030;DHT22;42920;45.306;20.448;2024-01-07T13:02:50;307.30;1971.20
57030;DHT22;42920;45.306;20.448;2024-01-07T13:05:16;307.20;2304.00
57030;DHT22;42920;45.306;20.448;2024-01-07T13:07:42;307.20;2304.00
57030;DHT22;42920;45.306;20.448;2024-01-07T13:10:08;282.50;2278.40
57030;DHT22;42920;45.306;20.448;2024-01-07T13:12:34;282.50;2278.40
57030;DHT22;42920;45.306;20.448;2024-01-07T13:15:00;282.50;2278.40
57030;DHT22;42920;45.306;20.448;2024-01-07T13:17:26;282.40;2278.40
57030;DHT22;42920;45.306;20.448;2024-01-07T13:19:52;282.40;2150.40
57030;DHT22;42920;45.306;20.448;2024-01-07T13:22:18;282.40;2278.40
57030;DHT22;42920;45.306;20.448;2024-01-07T13:24:44;282.30;2278.40
57030;DHT22;42920;45.306;20.448;2024-01-07T13:27:09;282.20;1971.20
57030;DHT22;42920;45.306;20.448;2024-01-07T13:29:35;282.20;2150.40
57030;DHT22;42920;45.306;20.448;2024-01-07T13:32:00;282.20;1920.00
57030;DHT22;42920;45.306;20.448;2024-01-07T13:34:27;282.20;2073.60
57030;DHT22;42920;45.306;20.448;2024-01-07T13:36:52;282.20;2278.40
57030;DHT22;42920;45.306;20.448;2024-01-07T13:39:19;282.30;2278.40
57030;DHT22;42920;45.306;20.448;2024-01-07T13:41:44;282.20;2022.40
57030;DHT22;42920;45.306;20.448;2024-01-07T13:44:10;282.20;2278.40
57030;DHT22;42920;45.306;20.448;2024-01-07T13:46:43;282.20;2278.40
57030;DHT22;42920;45.306;20.448;2024-01-07T13:49:09;282.10;2278.40
57030;DHT22;42920;45.306;20.448;2024-01-07T13:51:36;282.20;2278.40
57030;DHT22;42920;45.306;20.448;2024-01-07T13:54:03;282.20;2278.40
57030;DHT22;42920;45.306;20.448;2024-01-07T13:56:29;282.30;2278.40
57030;DHT22;42920;45.306;20.448;2024-01-07T13:58:54;282.20;2278.40
57030;DHT22;42920;45.306;20.448;2024-01-07T14:01:21;282.10;2278.40
57030;DHT22;42920;45.306;20.448;2024-01-07T14:03:47;282.10;2278.40
57030;DHT22;42920;45.306;20.448;2024-01-07T14:06:12;282.10;2176.00
57030;DHT22;42920;45.306;20.448;2024-01-07T14:08:38;282.10;2278.40
57030;DHT22;42920;45.306;20.448;2024-01-07T14:11:04;282.10;2278.40
57030;DHT22;42920;45.306;20.448;2024-01-07T14:13:32;282.00;2278.40
57030;DHT22;42920;45.306;20.448;2024-01-07T14:15:58;282.00;2278.40
57030;DHT22;42920;45.306;20.448;2024-01-07T14:18:23;281.80;2176.00
57030;DHT22;42920;45.306;20.448;2024-01-07T14:20:49;281.80;2278.40
57030;DHT22;42920;45.306;20.448;2024-01-07T14:23:14;281.70;2278.40
57030;DHT22;42920;45.306;20.448;2024-01-07T14:25:40;281.60;2278.40
57030;DHT22;42920;45.306;20.448;2024-01-07T14:28:07;281.60;2278.40
57030;DHT22;42920;45.306;20.448;2024-01-07T14:30:33;256.80;2252.80
57030;DHT22;42920;45.306;20.448;2024-01-07T14:32:58;256.70;2252.80
57030;DHT22;42920;45.306;20.448;2024-01-07T14:35:24;256.60;1996.80